sensor_id;sensor_type;location;lat;lon;timestamp;pressure;altitude;pressure_sealevel;temperature;humidity
44979;BME280;67464;52.438;-1.904;2023-04-07T00:00:42;100449.07;;;5.78;64.51
44979;BME280;67464;52.438;-1.904;2023-04-07T00:03:08;100457.14;;;6.55;64.59
44979;BME280;67464;52.438;-1.904;2023-04-07T00:05:34;100458.25;;;5.58;66.11
44979;BME280;67464;52.438;-1.904;2023-04-07T00:08:00;100458.45;;;6.17;63.93
44979;BME280;67464;52.438;-1.904;2023-04-07T00:10:26;100458.34;;;5.23;65.42
44979;BME280;67464;52.438;-1.904;2023-04-07T00:12:52;100457.83;;;6.15;65.19
44979;BME280;67464;52.438;-1.904;2023-04-07T00:15:18;100455.16;;;6.38;63.07
44979;BME280;67464;52.438;-1.904;2023-04-07T00:17:42;100456.08;;;6.12;64.68
44979;BME280;67464;52.438;-1.904;2023-04-07T00:20:08;100460.38;;;6.15;64.43
44979;BME280;67464;52.438;-1.904;2023-04-07T00:22:32;100464.74;;;6.12;65.23
44979;BME280;67464;52.438;-1.904;2023-04-07T00:24:58;100469.63;;;6.98;62.70
44979;BME280;67464;52.438;-1.904;2023-04-07T00:27:24;100470.24;;;6.67;61.38
44979;BME280;67464;52.438;-1.904;2023-04-07T00:29:49;100467.08;;;6.47;62.40
44979;BME280;67464;52.438;-1.904;2023-04-07T00:32:15;100469.44;;;5.33;65.21
44979;BME280;67464;52.438;-1.904;2023-04-07T00:34:40;100468.74;;;5.79;67.10
44979;BME280;67464;52.438;-1.904;2023-04-07T00:37:06;100470.62;;;5.42;67.93
44979;BME280;67464;52.438;-1.904;2023-04-07T00:39:31;100474.85;;;5.23;69.96
44979;BME280;67464;52.438;-1.904;2023-04-07T00:41:56;100475.88;;;5.20;71.63
44979;BME280;67464;52.438;-1.904;2023-04-07T00:44:21;100475.44;;;4.94;72.79
44979;BME280;67464;52.438;-1.904;2023-04-07T00:46:47;100475.82;;;5.23;71.10
44979;BME280;67464;52.438;-1.904;2023-04-07T00:49:12;100478.43;;;4.82;72.68
44979;BME280;67464;52.438;-1.904;2023-04-07T00:51:37;100476.14;;;6.01;68.89
44979;BME280;67464;52.438;-1.904;2023-04-07T00:54:02;100475.21;;;5.77;68.04
44979;BME280;67464;52.438;-1.904;2023-04-07T00:56:27;100470.14;;;6.45;64.02
44979;BME280;67464;52.438;-1.904;2023-04-07T00:58:53;100467.09;;;5.67;63.48
44979;BME280;67464;52.438;-1.904;2023-04-07T01:01:21;100471.65;;;6.96;60.97
44979;BME280;67464;52.438;-1.904;2023-04-07T01:03:45;100473.30;;;5.97;63.81
44979;BME280;67464;52.438;-1.904;2023-04-07T01:06:13;100476.35;;;4.47;68.85
44979;BME280;67464;52.438;-1.904;2023-04-07T01:08:41;100475.86;;;5.25;66.96
44979;BME280;67464;52.438;-1.904;2023-04-07T01:11:04;100469.54;;;6.61;63.75
44979;BME280;67464;52.438;-1.904;2023-04-07T01:13:29;100464.32;;;6.35;63.36
44979;BME280;67464;52.438;-1.904;2023-04-07T01:15:51;100464.25;;;6.53;63.84
44979;BME280;67464;52.438;-1.904;2023-04-07T01:18:20;100463.62;;;5.62;62.65
44979;BME280;67464;52.438;-1.904;2023-04-07T01:20:42;100466.00;;;5.46;65.83
44979;BME280;67464;52.438;-1.904;2023-04-07T01:23:06;100463.42;;;6.46;64.48
44979;BME280;67464;52.438;-1.904;2023-04-07T01:25:44;100463.04;;;6.10;62.03
44979;BME280;67464;52.438;-1.904;2023-04-07T01:28:09;100460.41;;;6.01;64.14
44979;BME280;67464;52.438;-1.904;2023-04-07T01:30:25;100458.14;;;5.99;65.28
44979;BME280;67464;52.438;-1.904;2023-04-07T01:32:51;100459.47;;;6.46;62.88
44979;BME280;67464;52.438;-1.904;2023-04-07T01:35:13;100461.06;;;5.89;63.29
44979;BME280;67464;52.438;-1.904;2023-04-07T01:37:39;100458.74;;;6.23;62.20
44979;BME280;67464;52.438;-1.904;2023-04-07T01:40:05;100460.84;;;6.29;62.75
44979;BME280;67464;52.438;-1.904;2023-04-07T01:42:30;100458.85;;;5.82;64.46
44979;BME280;67464;52.438;-1.904;2023-04-07T01:44:55;100464.52;;;5.18;66.31
44979;BME280;67464;52.438;-1.904;2023-04-07T01:47:20;100466.46;;;6.22;64.76
44979;BME280;67464;52.438;-1.904;2023-04-07T01:49:46;100463.49;;;6.09;63.73
44979;BME280;67464;52.438;-1.904;2023-04-07T01:52:10;100462.21;;;5.96;62.95
44979;BME280;67464;52.438;-1.904;2023-04-07T01:54:36;100459.47;;;5.74;63.80
44979;BME280;67464;52.438;-1.904;2023-04-07T01:57:01;100459.44;;;5.72;63.49
44979;BME280;67464;52.438;-1.904;2023-04-07T01:59:27;100465.52;;;6.15;63.68
44979;BME280;67464;52.438;-1.904;2023-04-07T02:01:52;100470.93;;;6.39;62.45
44979;BME280;67464;52.438;-1.904;2023-04-07T02:04:21;100473.50;;;6.42;61.57
44979;BME280;67464;52.438;-1.904;2023-04-07T02:06:46;100474.15;;;6.56;62.67
44979;BME280;67464;52.438;-1.904;2023-04-07T02:09:10;100470.11;;;7.04;60.68
44979;BME280;67464;52.438;-1.904;2023-04-07T02:11:35;100470.33;;;7.72;58.10
44979;BME280;67464;52.438;-1.904;2023-04-07T02:14:01;100472.42;;;7.29;56.88
44979;BME280;67464;52.438;-1.904;2023-04-07T02:16:27;100471.81;;;6.74;59.33
44979;BME280;67464;52.438;-1.904;2023-04-07T02:18:52;100470.83;;;6.96;58.37
44979;BME280;67464;52.438;-1.904;2023-04-07T02:21:18;100468.88;;;6.15;60.49
44979;BME280;67464;52.438;-1.904;2023-04-07T02:23:45;100467.34;;;7.01;59.88
44979;BME280;67464;52.438;-1.904;2023-04-07T02:26:10;100466.17;;;6.11;62.19
44979;BME280;67464;52.438;-1.904;2023-04-07T02:28:35;100467.97;;;6.71;60.74
44979;BME280;67464;52.438;-1.904;2023-04-07T02:31:00;100465.29;;;6.65;60.11
44979;BME280;67464;52.438;-1.904;2023-04-07T02:33:25;100471.65;;;7.29;57.77
44979;BME280;67464;52.438;-1.904;2023-04-07T02:35:51;100472.66;;;7.11;58.34
44979;BME280;67464;52.438;-1.904;2023-04-07T02:38:17;100481.23;;;7.55;57.85
44979;BME280;67464;52.438;-1.904;2023-04-07T02:40:43;100477.56;;;6.69;58.38
44979;BME280;67464;52.438;-1.904;2023-04-07T02:43:09;100479.43;;;7.52;57.39
44979;BME280;67464;52.438;-1.904;2023-04-07T02:45:35;100484.37;;;7.11;56.71
44979;BME280;67464;52.438;-1.904;2023-04-07T02:48:01;100488.55;;;7.62;57.23
44979;BME280;67464;52.438;-1.904;2023-04-07T02:50:27;100489.80;;;6.84;56.71
44979;BME280;67464;52.438;-1.904;2023-04-07T02:52:52;100488.50;;;7.08;57.27
44979;BME280;67464;52.438;-1.904;2023-04-07T02:55:18;100486.88;;;7.18;57.14
44979;BME280;67464;52.438;-1.904;2023-04-07T02:57:43;100485.71;;;6.89;56.97
44979;BME280;67464;52.438;-1.904;2023-04-07T03:00:09;100488.31;;;6.70;59.56
44979;BME280;67464;52.438;-1.904;2023-04-07T03:02:34;100489.27;;;6.87;58.16
44979;BME280;67464;52.438;-1.904;2023-04-07T03:05:00;100489.94;;;6.36;58.21
44979;BME280;67464;52.438;-1.904;2023-04-07T03:07:26;100485.53;;;6.38;60.07
44979;BME280;67464;52.438;-1.904;2023-04-07T03:09:52;100483.52;;;6.49;59.78
44979;BME280;67464;52.438;-1.904;2023-04-07T03:12:18;100481.94;;;7.24;58.10
44979;BME280;67464;52.438;-1.904;2023-04-07T03:14:43;100480.13;;;7.01;57.28
44979;BME280;67464;52.438;-1.904;2023-04-07T03:17:09;100478.49;;;7.13;57.20
44979;BME280;67464;52.438;-1.904;2023-04-07T03:19:35;100475.63;;;7.12;57.40
44979;BME280;67464;52.438;-1.904;2023-04-07T03:22:01;100471.82;;;7.12;57.35
44979;BME280;67464;52.438;-1.904;2023-04-07T03:24:27;100469.30;;;6.46;58.16
44979;BME280;67464;52.438;-1.904;2023-04-07T03:26:53;100467.90;;;7.16;57.34
44979;BME280;67464;52.438;-1.904;2023-04-07T03:29:19;100468.61;;;7.82;56.65
44979;BME280;67464;52.438;-1.904;2023-04-07T03:31:45;100472.34;;;7.41;55.95
44979;BME280;67464;52.438;-1.904;2023-04-07T03:34:11;100469.42;;;7.33;55.64
44979;BME280;67464;52.438;-1.904;2023-04-07T03:36:37;100471.11;;;7.85;54.83
44979;BME280;67464;52.438;-1.904;2023-04-07T03:39:03;100470.65;;;7.48;55.40
44979;BME280;67464;52.438;-1.904;2023-04-07T03:41:29;100473.56;;;7.12;56.50
44979;BME280;67464;52.438;-1.904;2023-04-07T03:43:54;100471.01;;;7.09;56.65
44979;BME280;67464;52.438;-1.904;2023-04-07T03:46:19;100476.25;;;6.51;58.25
44979;BME280;67464;52.438;-1.904;2023-04-07T03:48:44;100478.21;;;6.02;59.58
44979;BME280;67464;52.438;-1.904;2023-04-07T03:51:09;100481.27;;;6.59;58.90
44979;BME280;67464;52.438;-1.904;2023-04-07T03:53:34;100481.82;;;6.40;58.25
44979;BME280;67464;52.438;-1.904;2023-04-07T03:55:59;100481.92;;;6.43;58.58
44979;BME280;67464;52.438;-1.904;2023-04-07T03:58:24;100478.84;;;6.71;58.13
44979;BME280;67464;52.438;-1.904;2023-04-07T04:00:49;100483.10;;;6.21;59.65
44979;BME280;67464;52.438;-1.904;2023-04-07T04:03:15;100484.72;;;6.06;58.24
44979;BME280;67464;52.438;-1.904;2023-04-07T04:05:39;100482.82;;;6.41;58.70
44979;BME280;67464;52.438;-1.904;2023-04-07T04:08:05;100484.40;;;6.85;57.68
44979;BME280;67464;52.438;-1.904;2023-04-07T04:10:30;100486.22;;;7.11;56.75
44979;BME280;67464;52.438;-1.904;2023-04-07T04:12:55;100490.18;;;6.76;56.91
44979;BME280;67464;52.438;-1.904;2023-04-07T04:15:20;100492.87;;;5.76;57.27
44979;BME280;67464;52.438;-1.904;2023-04-07T04:17:45;100494.28;;;6.92;58.75
44979;BME280;67464;52.438;-1.904;2023-04-07T04:20:11;100496.86;;;5.95;60.41
44979;BME280;67464;52.438;-1.904;2023-04-07T04:22:35;100498.75;;;5.76;60.60
44979;BME280;67464;52.438;-1.904;2023-04-07T04:25:01;100501.59;;;5.70;59.87
44979;BME280;67464;52.438;-1.904;2023-04-07T04:27:26;100502.83;;;4.87;62.68
44979;BME280;67464;52.438;-1.904;2023-04-07T04:29:51;100503.40;;;5.64;61.91
44979;BME280;67464;52.438;-1.904;2023-04-07T04:32:16;100500.02;;;5.84;60.88
44979;BME280;67464;52.438;-1.904;2023-04-07T04:34:41;100505.91;;;5.65;61.25
44979;BME280;67464;52.438;-1.904;2023-04-07T04:37:06;100504.80;;;6.18;60.72
44979;BME280;67464;52.438;-1.904;2023-04-07T04:39:31;100506.05;;;5.21;62.55
44979;BME280;67464;52.438;-1.904;2023-04-07T04:41:56;100506.68;;;4.91;63.21
44979;BME280;67464;52.438;-1.904;2023-04-07T04:44:21;100507.01;;;5.16;65.38
44979;BME280;67464;52.438;-1.904;2023-04-07T04:46:47;100512.26;;;4.92;67.76
44979;BME280;67464;52.438;-1.904;2023-04-07T04:49:11;100517.24;;;5.26;65.18
44979;BME280;67464;52.438;-1.904;2023-04-07T04:51:37;100521.48;;;4.40;69.70
44979;BME280;67464;52.438;-1.904;2023-04-07T04:54:02;100521.44;;;5.18;70.03
44979;BME280;67464;52.438;-1.904;2023-04-07T04:56:27;100526.04;;;3.93;70.57
44979;BME280;67464;52.438;-1.904;2023-04-07T04:58:52;100522.58;;;4.99;69.04
44979;BME280;67464;52.438;-1.904;2023-04-07T05:01:18;100521.32;;;5.13;68.91
44979;BME280;67464;52.438;-1.904;2023-04-07T05:03:43;100523.78;;;5.25;67.79
44979;BME280;67464;52.438;-1.904;2023-04-07T05:06:08;100522.60;;;5.08;68.66
44979;BME280;67464;52.438;-1.904;2023-04-07T05:08:33;100524.08;;;4.39;71.35
44979;BME280;67464;52.438;-1.904;2023-04-07T05:10:58;100520.62;;;4.78;69.97
44979;BME280;67464;52.438;-1.904;2023-04-07T05:13:23;100528.66;;;4.40;72.07
44979;BME280;67464;52.438;-1.904;2023-04-07T05:15:48;100522.39;;;4.85;68.75
44979;BME280;67464;52.438;-1.904;2023-04-07T05:18:13;100526.26;;;4.63;69.02
44979;BME280;67464;52.438;-1.904;2023-04-07T05:20:39;100528.17;;;5.24;68.25
44979;BME280;67464;52.438;-1.904;2023-04-07T05:23:04;100531.47;;;5.10;69.92
44979;BME280;67464;52.438;-1.904;2023-04-07T05:25:29;100539.74;;;5.27;68.34
44979;BME280;67464;52.438;-1.904;2023-04-07T05:27:54;100548.42;;;4.45;69.78
44979;BME280;67464;52.438;-1.904;2023-04-07T05:30:19;100547.46;;;4.75;68.33
44979;BME280;67464;52.438;-1.904;2023-04-07T05:32:44;100549.94;;;5.46;66.00
44979;BME280;67464;52.438;-1.904;2023-04-07T05:35:10;100554.77;;;5.64;64.59
44979;BME280;67464;52.438;-1.904;2023-04-07T05:37:35;100557.50;;;4.64;68.85
44979;BME280;67464;52.438;-1.904;2023-04-07T05:40:00;100561.39;;;5.21;67.64
44979;BME280;67464;52.438;-1.904;2023-04-07T05:42:25;100560.22;;;5.11;66.15
44979;BME280;67464;52.438;-1.904;2023-04-07T05:44:50;100560.59;;;5.36;66.68
44979;BME280;67464;52.438;-1.904;2023-04-07T05:47:15;100565.32;;;5.09;66.53
44979;BME280;67464;52.438;-1.904;2023-04-07T05:49:40;100569.69;;;5.20;67.00
44979;BME280;67464;52.438;-1.904;2023-04-07T05:52:05;100571.87;;;5.32;67.61
44979;BME280;67464;52.438;-1.904;2023-04-07T05:54:31;100572.83;;;5.90;65.95
44979;BME280;67464;52.438;-1.904;2023-04-07T05:56:56;100576.85;;;5.01;66.29
44979;BME280;67464;52.438;-1.904;2023-04-07T05:59:21;100581.50;;;5.28;66.15
44979;BME280;67464;52.438;-1.904;2023-04-07T06:01:47;100579.55;;;5.03;67.14
44979;BME280;67464;52.438;-1.904;2023-04-07T06:04:11;100582.12;;;5.83;65.03
44979;BME280;67464;52.438;-1.904;2023-04-07T06:06:36;100582.56;;;6.65;60.68
44979;BME280;67464;52.438;-1.904;2023-04-07T06:09:02;100584.59;;;6.63;60.05
44979;BME280;67464;52.438;-1.904;2023-04-07T06:11:27;100586.47;;;6.85;58.56
44979;BME280;67464;52.438;-1.904;2023-04-07T06:13:52;100585.66;;;6.53;58.52
44979;BME280;67464;52.438;-1.904;2023-04-07T06:16:17;100591.96;;;6.91;59.34
44979;BME280;67464;52.438;-1.904;2023-04-07T06:18:42;100593.12;;;6.54;58.87
44979;BME280;67464;52.438;-1.904;2023-04-07T06:21:07;100595.52;;;7.25;56.88
44979;BME280;67464;52.438;-1.904;2023-04-07T06:23:32;100597.15;;;7.07;56.69
44979;BME280;67464;52.438;-1.904;2023-04-07T06:25:57;100600.43;;;6.71;58.54
44979;BME280;67464;52.438;-1.904;2023-04-07T06:28:22;100602.17;;;7.68;57.51
44979;BME280;67464;52.438;-1.904;2023-04-07T06:30:47;100605.41;;;7.99;55.17
44979;BME280;67464;52.438;-1.904;2023-04-07T06:33:13;100606.65;;;7.94;54.89
44979;BME280;67464;52.438;-1.904;2023-04-07T06:35:39;100610.46;;;8.48;53.76
44979;BME280;67464;52.438;-1.904;2023-04-07T06:38:04;100611.60;;;8.36;55.13
44979;BME280;67464;52.438;-1.904;2023-04-07T06:40:29;100610.55;;;8.60;53.50
44979;BME280;67464;52.438;-1.904;2023-04-07T06:42:54;100608.66;;;9.99;51.52
44979;BME280;67464;52.438;-1.904;2023-04-07T06:45:20;100606.01;;;9.34;54.04
44979;BME280;67464;52.438;-1.904;2023-04-07T06:47:45;100607.34;;;10.42;52.43
44979;BME280;67464;52.438;-1.904;2023-04-07T06:50:11;100608.63;;;12.18;48.74
44979;BME280;67464;52.438;-1.904;2023-04-07T06:52:36;100604.17;;;14.17;45.39
44979;BME280;67464;52.438;-1.904;2023-04-07T06:55:03;100607.06;;;14.19;43.49
44979;BME280;67464;52.438;-1.904;2023-04-07T06:57:28;100609.41;;;14.03;43.06
44979;BME280;67464;52.438;-1.904;2023-04-07T06:59:54;100609.98;;;15.10;43.76
44979;BME280;67464;52.438;-1.904;2023-04-07T07:02:20;100613.23;;;14.88;42.89
44979;BME280;67464;52.438;-1.904;2023-04-07T07:04:45;100615.11;;;16.01;38.54
44979;BME280;67464;52.438;-1.904;2023-04-07T07:07:11;100618.25;;;16.81;37.93
44979;BME280;67464;52.438;-1.904;2023-04-07T07:09:37;100616.97;;;17.27;37.66
44979;BME280;67464;52.438;-1.904;2023-04-07T07:12:02;100619.43;;;16.18;37.53
44979;BME280;67464;52.438;-1.904;2023-04-07T07:14:28;100619.83;;;16.16;37.96
44979;BME280;67464;52.438;-1.904;2023-04-07T07:16:54;100619.35;;;17.13;37.12
44979;BME280;67464;52.438;-1.904;2023-04-07T07:19:19;100623.27;;;16.66;37.26
44979;BME280;67464;52.438;-1.904;2023-04-07T07:21:45;100626.43;;;16.60;37.35
44979;BME280;67464;52.438;-1.904;2023-04-07T07:24:11;100625.07;;;17.28;35.52
44979;BME280;67464;52.438;-1.904;2023-04-07T07:26:37;100635.07;;;17.01;37.00
44979;BME280;67464;52.438;-1.904;2023-04-07T07:29:02;100633.82;;;18.08;35.68
44979;BME280;67464;52.438;-1.904;2023-04-07T07:31:28;100635.36;;;17.72;34.84
44979;BME280;67464;52.438;-1.904;2023-04-07T07:33:54;100642.29;;;17.24;36.85
44979;BME280;67464;52.438;-1.904;2023-04-07T07:36:19;100643.05;;;16.78;36.60
44979;BME280;67464;52.438;-1.904;2023-04-07T07:38:45;100644.19;;;16.81;36.22
44979;BME280;67464;52.438;-1.904;2023-04-07T07:41:11;100639.21;;;18.67;34.00
44979;BME280;67464;52.438;-1.904;2023-04-07T07:43:36;100641.35;;;18.88;34.13
44979;BME280;67464;52.438;-1.904;2023-04-07T07:46:02;100634.99;;;19.48;31.99
44979;BME280;67464;52.438;-1.904;2023-04-07T07:48:28;100635.23;;;18.37;33.58
44979;BME280;67464;52.438;-1.904;2023-04-07T07:50:53;100635.33;;;17.95;33.16
44979;BME280;67464;52.438;-1.904;2023-04-07T07:53:19;100636.98;;;19.71;33.03
44979;BME280;67464;52.438;-1.904;2023-04-07T07:55:45;100644.29;;;20.55;31.51
44979;BME280;67464;52.438;-1.904;2023-04-07T07:58:10;100643.43;;;20.88;30.78
44979;BME280;67464;52.438;-1.904;2023-04-07T08:00:35;100644.50;;;21.25;30.00
44979;BME280;67464;52.438;-1.904;2023-04-07T08:03:01;100645.47;;;20.26;30.17
44979;BME280;67464;52.438;-1.904;2023-04-07T08:05:26;100644.70;;;20.23;30.79
44979;BME280;67464;52.438;-1.904;2023-04-07T08:07:52;100644.15;;;20.13;30.03
44979;BME280;67464;52.438;-1.904;2023-04-07T08:10:18;100645.48;;;20.98;29.34
44979;BME280;67464;52.438;-1.904;2023-04-07T08:12:43;100646.08;;;20.57;28.68
44979;BME280;67464;52.438;-1.904;2023-04-07T08:15:09;100644.73;;;23.04;27.42
44979;BME280;67464;52.438;-1.904;2023-04-07T08:17:34;100646.87;;;20.45;27.53
44979;BME280;67464;52.438;-1.904;2023-04-07T08:20:00;100643.80;;;20.46;28.10
44979;BME280;67464;52.438;-1.904;2023-04-07T08:22:25;100646.38;;;20.51;28.81
44979;BME280;67464;52.438;-1.904;2023-04-07T08:24:51;100649.89;;;22.13;27.73
44979;BME280;67464;52.438;-1.904;2023-04-07T08:27:16;100650.71;;;20.41;28.30
44979;BME280;67464;52.438;-1.904;2023-04-07T08:29:42;100652.01;;;21.73;27.78
44979;BME280;67464;52.438;-1.904;2023-04-07T08:32:07;100647.53;;;22.21;26.43
44979;BME280;67464;52.438;-1.904;2023-04-07T08:34:33;100648.75;;;22.47;26.10
44979;BME280;67464;52.438;-1.904;2023-04-07T08:36:58;100654.28;;;23.84;25.96
44979;BME280;67464;52.438;-1.904;2023-04-07T08:39:23;100654.51;;;24.43;24.74
44979;BME280;67464;52.438;-1.904;2023-04-07T08:41:49;100658.95;;;23.55;25.10
44979;BME280;67464;52.438;-1.904;2023-04-07T08:44:15;100657.19;;;23.42;25.06
44979;BME280;67464;52.438;-1.904;2023-04-07T08:46:40;100662.23;;;23.47;24.93
44979;BME280;67464;52.438;-1.904;2023-04-07T08:49:08;100661.76;;;22.76;25.41
44979;BME280;67464;52.438;-1.904;2023-04-07T08:51:31;100659.66;;;24.05;24.32
44979;BME280;67464;52.438;-1.904;2023-04-07T08:54:02;100658.72;;;24.17;24.07
44979;BME280;67464;52.438;-1.904;2023-04-07T08:56:22;100660.71;;;23.17;25.36
44979;BME280;67464;52.438;-1.904;2023-04-07T08:58:48;100661.65;;;23.85;24.65
44979;BME280;67464;52.438;-1.904;2023-04-07T09:01:13;100660.85;;;23.13;24.85
44979;BME280;67464;52.438;-1.904;2023-04-07T09:03:38;100663.93;;;23.63;24.76
44979;BME280;67464;52.438;-1.904;2023-04-07T09:06:04;100663.54;;;22.82;24.72
44979;BME280;67464;52.438;-1.904;2023-04-07T09:08:29;100668.57;;;21.46;26.66
44979;BME280;67464;52.438;-1.904;2023-04-07T09:10:56;100662.32;;;23.04;24.32
44979;BME280;67464;52.438;-1.904;2023-04-07T09:13:20;100665.17;;;22.12;25.64
44979;BME280;67464;52.438;-1.904;2023-04-07T09:15:45;100670.20;;;22.36;25.27
44979;BME280;67464;52.438;-1.904;2023-04-07T09:18:10;100666.80;;;22.67;25.27
44979;BME280;67464;52.438;-1.904;2023-04-07T09:20:54;100663.97;;;23.55;23.66
44979;BME280;67464;52.438;-1.904;2023-04-07T09:23:01;100663.45;;;24.39;23.32
44979;BME280;67464;52.438;-1.904;2023-04-07T09:25:27;100660.00;;;25.00;23.44
44979;BME280;67464;52.438;-1.904;2023-04-07T09:27:54;100658.18;;;24.80;22.68
44979;BME280;67464;52.438;-1.904;2023-04-07T09:30:17;100657.30;;;23.92;24.02
44979;BME280;67464;52.438;-1.904;2023-04-07T09:32:42;100658.60;;;23.27;24.59
44979;BME280;67464;52.438;-1.904;2023-04-07T09:35:08;100656.68;;;23.62;24.74
44979;BME280;67464;52.438;-1.904;2023-04-07T09:37:33;100656.94;;;25.30;22.04
44979;BME280;67464;52.438;-1.904;2023-04-07T09:39:58;100653.90;;;25.06;23.55
44979;BME280;67464;52.438;-1.904;2023-04-07T09:42:24;100652.90;;;25.87;21.94
44979;BME280;67464;52.438;-1.904;2023-04-07T09:44:49;100653.66;;;25.33;22.69
44979;BME280;67464;52.438;-1.904;2023-04-07T09:47:14;100656.67;;;25.70;23.07
44979;BME280;67464;52.438;-1.904;2023-04-07T09:49:49;100652.00;;;25.52;21.02
44979;BME280;67464;52.438;-1.904;2023-04-07T09:52:05;100651.23;;;26.11;22.02
44979;BME280;67464;52.438;-1.904;2023-04-07T09:54:33;100654.13;;;25.60;20.49
44979;BME280;67464;52.438;-1.904;2023-04-07T09:56:57;100649.60;;;25.99;20.76
44979;BME280;67464;52.438;-1.904;2023-04-07T09:59:24;100652.22;;;25.66;21.19
44979;BME280;67464;52.438;-1.904;2023-04-07T10:01:47;100652.89;;;25.14;21.44
44979;BME280;67464;52.438;-1.904;2023-04-07T10:04:12;100653.59;;;23.74;22.90
44979;BME280;67464;52.438;-1.904;2023-04-07T10:06:38;100652.26;;;23.47;24.19
44979;BME280;67464;52.438;-1.904;2023-04-07T10:09:03;100647.28;;;23.92;22.37
44979;BME280;67464;52.438;-1.904;2023-04-07T10:11:28;100650.58;;;24.39;24.58
44979;BME280;67464;52.438;-1.904;2023-04-07T10:13:53;100643.54;;;24.85;21.09
44979;BME280;67464;52.438;-1.904;2023-04-07T10:16:19;100642.40;;;26.82;25.10
44979;BME280;67464;52.438;-1.904;2023-04-07T10:18:44;100640.96;;;26.70;18.44
44979;BME280;67464;52.438;-1.904;2023-04-07T10:21:09;100644.07;;;26.26;22.72
44979;BME280;67464;52.438;-1.904;2023-04-07T10:23:44;100642.40;;;26.32;19.25
44979;BME280;67464;52.438;-1.904;2023-04-07T10:26:00;100647.63;;;25.24;20.65
44979;BME280;67464;52.438;-1.904;2023-04-07T10:28:26;100643.11;;;24.70;19.68
44979;BME280;67464;52.438;-1.904;2023-04-07T10:30:50;100644.58;;;24.92;20.36
44979;BME280;67464;52.438;-1.904;2023-04-07T10:33:16;100643.64;;;24.92;20.52
44979;BME280;67464;52.438;-1.904;2023-04-07T10:38:11;100647.00;;;25.38;20.33
44979;BME280;67464;52.438;-1.904;2023-04-07T10:40:32;100646.81;;;25.56;19.27
44979;BME280;67464;52.438;-1.904;2023-04-07T10:42:57;100648.74;;;26.00;21.19
44979;BME280;67464;52.438;-1.904;2023-04-07T10:50:16;100648.15;;;25.54;22.29
44979;BME280;67464;52.438;-1.904;2023-04-07T10:52:38;100645.74;;;25.01;21.28
44979;BME280;67464;52.438;-1.904;2023-04-07T10:57:29;100644.08;;;25.81;22.61
44979;BME280;67464;52.438;-1.904;2023-04-07T11:02:31;100643.35;;;25.38;20.36
44979;BME280;67464;52.438;-1.904;2023-04-07T11:04:45;100641.97;;;24.13;24.96
44979;BME280;67464;52.438;-1.904;2023-04-07T11:07:11;100638.23;;;23.99;22.54
44979;BME280;67464;52.438;-1.904;2023-04-07T11:09:36;100637.76;;;23.71;22.65
44979;BME280;67464;52.438;-1.904;2023-04-07T11:12:00;100633.22;;;24.22;22.71
44979;BME280;67464;52.438;-1.904;2023-04-07T11:14:26;100634.71;;;25.23;19.76
44979;BME280;67464;52.438;-1.904;2023-04-07T11:16:51;100633.77;;;24.76;22.31
44979;BME280;67464;52.438;-1.904;2023-04-07T11:19:16;100634.38;;;25.46;22.58
44979;BME280;67464;52.438;-1.904;2023-04-07T11:21:41;100630.67;;;26.03;18.74
44979;BME280;67464;52.438;-1.904;2023-04-07T11:24:07;100630.16;;;26.64;21.94
44979;BME280;67464;52.438;-1.904;2023-04-07T11:26:37;100627.49;;;24.76;19.72
44979;BME280;67464;52.438;-1.904;2023-04-07T11:28:58;100624.58;;;24.23;19.05
44979;BME280;67464;52.438;-1.904;2023-04-07T11:31:25;100622.69;;;24.64;19.80
44979;BME280;67464;52.438;-1.904;2023-04-07T11:33:51;100624.51;;;24.78;19.94
44979;BME280;67464;52.438;-1.904;2023-04-07T11:38:40;100624.04;;;23.56;20.56
44979;BME280;67464;52.438;-1.904;2023-04-07T11:41:11;100619.62;;;22.66;22.74
44979;BME280;67464;52.438;-1.904;2023-04-07T11:43:30;100619.16;;;23.54;23.60
44979;BME280;67464;52.438;-1.904;2023-04-07T11:46:03;100614.78;;;25.72;18.52
44979;BME280;67464;52.438;-1.904;2023-04-07T11:48:27;100614.61;;;25.01;18.30
44979;BME280;67464;52.438;-1.904;2023-04-07T11:50:46;100614.01;;;25.12;21.13
44979;BME280;67464;52.438;-1.904;2023-04-07T11:53:11;100611.02;;;24.48;18.92
44979;BME280;67464;52.438;-1.904;2023-04-07T11:55:36;100611.46;;;25.02;18.14
44979;BME280;67464;52.438;-1.904;2023-04-07T11:58:05;100609.83;;;24.25;21.27
44979;BME280;67464;52.438;-1.904;2023-04-07T12:00:27;100606.78;;;24.00;18.62
44979;BME280;67464;52.438;-1.904;2023-04-07T12:02:52;100608.89;;;24.52;19.07
44979;BME280;67464;52.438;-1.904;2023-04-07T12:05:17;100611.52;;;24.74;19.42
44979;BME280;67464;52.438;-1.904;2023-04-07T12:07:51;100607.99;;;24.96;18.88
44979;BME280;67464;52.438;-1.904;2023-04-07T12:10:18;100609.96;;;25.34;20.14
44979;BME280;67464;52.438;-1.904;2023-04-07T12:12:33;100610.03;;;25.26;18.84
44979;BME280;67464;52.438;-1.904;2023-04-07T12:14:58;100609.96;;;22.90;22.17
44979;BME280;67464;52.438;-1.904;2023-04-07T12:17:26;100607.85;;;24.20;18.61
44979;BME280;67464;52.438;-1.904;2023-04-07T12:19:49;100609.57;;;24.62;17.91
44979;BME280;67464;52.438;-1.904;2023-04-07T12:22:14;100605.31;;;24.76;17.50
44979;BME280;67464;52.438;-1.904;2023-04-07T12:24:39;100607.71;;;23.50;17.36
44979;BME280;67464;52.438;-1.904;2023-04-07T12:27:04;100604.20;;;23.67;18.71
44979;BME280;67464;52.438;-1.904;2023-04-07T12:29:30;100605.99;;;24.94;16.96
44979;BME280;67464;52.438;-1.904;2023-04-07T12:31:55;100604.80;;;25.12;19.00
44979;BME280;67464;52.438;-1.904;2023-04-07T12:34:20;100608.33;;;25.46;16.90
44979;BME280;67464;52.438;-1.904;2023-04-07T12:36:45;100606.28;;;25.30;17.48
44979;BME280;67464;52.438;-1.904;2023-04-07T12:39:11;100607.20;;;24.11;18.25
44979;BME280;67464;52.438;-1.904;2023-04-07T12:41:36;100612.41;;;24.68;18.65
44979;BME280;67464;52.438;-1.904;2023-04-07T12:44:01;100611.62;;;24.74;17.70
44979;BME280;67464;52.438;-1.904;2023-04-07T12:46:26;100612.05;;;23.68;16.96
44979;BME280;67464;52.438;-1.904;2023-04-07T12:48:52;100606.95;;;23.95;17.55